Atlanta, Georgia
Traffic Map
Current Weather Conditions
Atlanta, Georgia
Overcast
Overcast
66°
Feels Like: 66°
Wind Chill: 66° Ceiling: 600
Heat Index: 66° Visibility: 7mi
Dew Point: 64° Wind: 9mph
Humidity: 94% Direction: 90° (E)
Pressure: 30.1in Gusts: 0mph
Raw Report DataKATL 311016Z 09008KT 7SM OVC006 19/18 A3010 RMK AO2
Traffic Incident Summary
Active as of:
Severity:
Category:
InformationThere was an issue retrieving the traffic information for this location. Please try a different location or try again shortly.
Advertisements
Track Severe Weather on mobile